Time;durP1;ratioP1;P1;durP2;ratioP2;P2;SDS_P1;SDS_P2;PMS_P1;PMS_P2;Temp;Humidity;BMP_temperature;BMP_pressure;BME280_temperature;BME280_humidity;BME280_pressure;Samples;Min_cycle;Max_cycle;Signal;HPM_P1;HPM_P2
2023/01/05 00:00:02;;;;;;;19.77;6.28;;;;;;;14.68;57.73;100856.25;681022;29;1454;-79
2023/01/05 00:00:32;;;;;;;19.27;5.60;;;;;;;14.60;57.98;100843.88;685064;28;859;-78
2023/01/05 00:00:54;;;;;;;19.30;5.70;;;;;;;14.66;57.83;100857.09;687721;28;1027;-79
2023/01/05 00:01:15;;;;;;;20.63;5.60;;;;;;;14.61;57.91;100848.28;682930;29;1210;-78
2023/01/05 00:01:36;;;;;;;18.17;5.78;;;;;;;14.59;57.92;100860.50;687720;28;866;-77
2023/01/05 00:01:56;;;;;;;18.40;6.05;;;;;;;14.46;58.01;100863.84;688249;28;1079;-78
2023/01/05 00:02:17;;;;;;;18.90;6.43;;;;;;;14.56;57.99;100849.09;683132;29;1092;-78
2023/01/05 00:02:38;;;;;;;19.30;6.50;;;;;;;14.64;57.99;100855.31;685881;28;752;-78
2023/01/05 00:02:58;;;;;;;18.88;5.97;;;;;;;14.58;57.81;100857.84;685636;28;1268;-78
2023/01/05 00:03:19;;;;;;;19.63;6.20;;;;;;;14.62;58.06;100857.91;682986;29;1964;-77
2023/01/05 00:03:40;;;;;;;17.60;6.13;;;;;;;14.68;57.57;100866.75;685714;28;1329;-78
2023/01/05 00:04:01;;;;;;;20.10;6.57;;;;;;;14.73;57.52;100834.41;688496;28;737;-78
2023/01/05 00:04:22;;;;;;;20.42;6.15;;;;;;;14.68;57.34;100846.59;688358;28;1070;-77
2023/01/05 00:04:44;;;;;;;20.70;5.75;;;;;;;14.66;57.44;100858.84;688897;28;1209;-78
2023/01/05 00:05:05;;;;;;;18.55;5.40;;;;;;;14.70;57.53;100854.50;685616;28;1425;-78
2023/01/05 00:05:25;;;;;;;18.20;5.53;;;;;;;14.70;57.47;100834.38;685681;28;1291;-78
2023/01/05 00:05:46;;;;;;;20.70;6.20;;;;;;;14.76;57.49;100859.84;685614;28;1353;-77
2023/01/05 00:06:11;;;;;;;20.45;6.03;;;;;;;14.76;57.18;100844.06;683043;29;1001;-78
2023/01/05 00:06:32;;;;;;;17.85;6.03;;;;;;;14.63;57.41;100837.81;682943;28;2070;-78
2023/01/05 00:06:52;;;;;;;17.00;5.50;;;;;;;14.67;57.26;100842.22;685457;28;1342;-78
2023/01/05 00:07:13;;;;;;;18.10;5.90;;;;;;;14.60;57.67;100843.88;683302;28;1318;-78
2023/01/05 00:07:34;;;;;;;19.90;6.10;;;;;;;14.59;57.49;100841.25;683157;29;729;-77
2023/01/05 00:07:54;;;;;;;22.45;6.20;;;;;;;14.64;57.45;100850.94;685687;28;946;-78
2023/01/05 00:08:15;;;;;;;20.73;5.88;;;;;;;14.69;57.43;100848.34;683008;28;1256;-78
2023/01/05 00:08:36;;;;;;;23.87;6.00;;;;;;;14.67;57.27;100852.72;685735;28;1127;-78
2023/01/05 00:08:58;;;;;;;21.48;5.82;;;;;;;14.61;56.95;100884.16;682904;28;1207;-78
2023/01/05 00:09:19;;;;;;;23.98;6.30;;;;;;;14.64;57.41;100847.44;682869;29;1316;-77
2023/01/05 00:09:39;;;;;;;19.67;5.93;;;;;;;14.70;57.42;100867.63;688312;28;1207;-78
2023/01/05 00:10:00;;;;;;;19.23;6.15;;;;;;;14.68;57.22;100858.88;685647;28;1174;-78
2023/01/05 00:22:29;;;;;;;22.15;6.60;;;;;;;14.80;56.80;100883.53;687339;28;946;-77
2023/01/05 00:22:46;;;;;;;13.93;5.03;;;;;;;14.55;57.01;100858.69;690575;28;1146;-77
2023/01/05 00:23:08;;;;;;;14.45;5.53;;;;;;;14.56;57.03;100877.97;692258;28;963;-78
2023/01/05 00:23:29;;;;;;;18.10;6.40;;;;;;;14.55;57.49;100871.81;691016;28;1385;-78
2023/01/05 00:23:49;;;;;;;20.95;7.25;;;;;;;14.59;57.30;100875.38;692597;28;1018;-78
2023/01/05 00:24:10;;;;;;;24.83;7.17;;;;;;;14.58;57.01;100871.00;690947;28;1156;-77
2023/01/05 00:24:31;;;;;;;21.20;6.43;;;;;;;14.55;57.02;100861.31;688173;28;1281;-77
2023/01/05 00:24:51;;;;;;;19.17;5.72;;;;;;;14.53;57.06;100868.31;682960;28;1196;-77
2023/01/05 00:25:18;;;;;;;12.73;5.10;;;;;;;14.57;56.95;100874.47;682947;29;1119;-77
2023/01/05 00:25:40;;;;;;;18.10;5.50;;;;;;;14.54;56.89;100859.56;683095;29;1129;-77
2023/01/05 00:26:00;;;;;;;17.50;5.40;;;;;;;14.57;56.96;100877.97;685621;28;850;-78
2023/01/05 00:26:21;;;;;;;18.13;5.40;;;;;;;14.50;57.10;100874.41;688236;28;1097;-77
2023/01/05 00:26:42;;;;;;;16.07;5.40;;;;;;;14.53;56.95;100868.31;688268;28;1011;-78
2023/01/05 00:27:02;;;;;;;18.40;5.85;;;;;;;14.51;56.98;100876.16;688237;28;1080;-78
2023/01/05 00:27:24;;;;;;;18.00;5.90;;;;;;;14.52;56.80;100872.66;682899;29;1367;-78
2023/01/05 00:27:50;;;;;;;17.20;5.70;;;;;;;14.59;56.80;100876.28;682825;29;1029;-77
2023/01/05 00:28:11;;;;;;;15.65;5.10;;;;;;;14.54;56.94;100875.31;680486;29;1102;-78
2023/01/05 00:28:32;;;;;;;18.38;5.40;;;;;;;14.49;57.06;100877.88;680326;29;1080;-77
2023/01/05 00:28:52;;;;;;;20.05;5.82;;;;;;;14.50;57.11;100868.28;685512;28;1206;-77
2023/01/05 00:29:13;;;;;;;22.75;6.47;;;;;;;14.59;57.30;100867.50;685696;28;1120;-77
2023/01/05 00:29:33;;;;;;;18.30;5.80;;;;;;;14.58;56.80;100873.63;691159;28;1038;-78
2023/01/05 00:29:54;;;;;;;18.00;5.85;;;;;;;14.60;56.99;100869.25;688180;28;1215;-78
2023/01/05 00:30:19;;;;;;;17.65;5.68;;;;;;;14.62;56.76;100894.69;688233;28;1251;-77
2023/01/05 00:30:42;;;;;;;21.10;5.78;;;;;;;14.63;56.68;100877.19;682930;29;1089;-77
2023/01/05 00:31:03;;;;;;;20.17;5.40;;;;;;;14.52;56.80;100874.44;680385;29;1065;-77
2023/01/05 00:31:23;;;;;;;20.60;5.43;;;;;;;14.54;56.80;100864.81;680199;28;1126;-77
2023/01/05 00:31:44;;;;;;;17.63;4.87;;;;;;;14.44;56.58;100879.56;680457;29;1053;-78
2023/01/05 00:32:04;;;;;;;16.20;5.32;;;;;;;14.47;56.85;100869.13;683003;28;1159;-77
2023/01/05 00:32:26;;;;;;;13.13;5.13;;;;;;;14.53;56.88;100876.19;682956;28;998;-78
2023/01/05 00:32:47;;;;;;;15.25;5.55;;;;;;;14.56;56.75;100867.47;685597;28;1175;-78
2023/01/05 00:33:12;;;;;;;18.52;5.28;;;;;;;14.43;56.78;100887.44;685529;28;1332;-78
2023/01/05 00:33:33;;;;;;;20.17;5.47;;;;;;;14.47;56.67;100863.88;683079;29;825;-77
2023/01/05 00:33:53;;;;;;;20.92;5.65;;;;;;;14.43;56.65;100867.28;683034;29;987;-77
2023/01/05 00:34:14;;;;;;;17.65;5.60;;;;;;;14.40;56.59;100856.75;688230;28;1296;-78
2023/01/05 00:34:35;;;;;;;18.00;5.60;;;;;;;14.50;56.68;100870.91;683169;28;1190;-77
2023/01/05 00:34:58;;;;;;;18.50;5.65;;;;;;;14.40;56.77;100867.25;685528;28;1361;-78
2023/01/05 00:35:19;;;;;;;18.27;5.50;;;;;;;14.42;56.91;100865.53;682910;28;1231;-78
2023/01/05 00:35:41;;;;;;;19.27;5.35;;;;;;;14.45;56.96;100880.44;682896;28;1151;-77
2023/01/05 00:36:08;;;;;;;17.15;5.00;;;;;;;14.45;56.68;100901.47;683043;29;860;-77
2023/01/05 00:36:28;;;;;;;15.52;5.30;;;;;;;14.33;56.91;100865.41;685472;28;1049;-77
2023/01/05 00:36:49;;;;;;;15.55;5.28;;;;;;;14.36;56.93;100875.94;682653;28;1343;-77
2023/01/05 00:37:09;;;;;;;18.43;5.70;;;;;;;14.43;56.92;100897.94;682979;28;1125;-78
2023/01/05 00:37:32;;;;;;;20.27;5.90;;;;;;;14.40;56.62;100872.50;682890;29;1191;-77
2023/01/05 00:37:53;;;;;;;22.30;5.78;;;;;;;14.46;56.89;100859.47;685477;28;1315;-78
2023/01/05 00:38:14;;;;;;;19.20;5.25;;;;;;;14.44;56.83;100869.06;685660;28;1214;-78
2023/01/05 00:38:34;;;;;;;16.73;4.90;;;;;;;14.42;56.39;100870.78;688075;28;1068;-77
2023/01/05 00:38:55;;;;;;;15.70;5.00;;;;;;;14.42;56.75;100869.88;686046;28;1040;-78
2023/01/05 00:39:16;;;;;;;17.65;5.30;;;;;;;14.45;56.41;100865.56;686229;28;1232;-78
2023/01/05 00:39:36;;;;;;;19.00;5.40;;;;;;;14.45;56.43;100875.19;685714;28;929;-78
2023/01/05 00:39:57;;;;;;;19.70;5.43;;;;;;;14.42;56.42;100865.53;683037;28;1246;-78
2023/01/05 00:40:20;;;;;;;18.42;5.20;;;;;;;14.31;56.60;100893.41;685553;28;1112;-78
2023/01/05 00:40:41;;;;;;;17.48;5.63;;;;;;;14.36;56.57;100868.97;685638;28;1161;-78
2023/01/05 00:41:01;;;;;;;17.25;5.75;;;;;;;14.39;56.76;100857.63;685603;28;872;-78
2023/01/05 00:41:22;;;;;;;19.13;5.70;;;;;;;14.37;56.65;100868.09;688410;28;1013;-77
2023/01/05 00:41:42;;;;;;;19.23;5.20;;;;;;;14.38;56.56;100871.63;690995;28;1044;-78
2023/01/05 00:42:03;;;;;;;19.65;5.47;;;;;;;14.27;56.98;100860.06;685485;28;1414;-78
2023/01/05 00:42:24;;;;;;;18.75;5.95;;;;;;;14.24;56.83;100863.53;682863;28;1114;-78
2023/01/05 00:42:46;;;;;;;20.55;5.90;;;;;;;14.29;56.95;100863.59;685526;28;1177;-78
2023/01/05 00:43:07;;;;;;;20.17;5.72;;;;;;;14.24;56.92;100871.41;685574;28;1161;-78
2023/01/05 00:43:27;;;;;;;19.20;5.40;;;;;;;14.30;57.14;100881.09;685391;28;1914;-77
2023/01/05 00:43:48;;;;;;;18.30;5.50;;;;;;;14.31;57.15;100878.50;688092;28;1189;-77
2023/01/05 00:44:08;;;;;;;17.52;5.47;;;;;;;14.23;56.95;100861.78;688354;28;1148;-77
2023/01/05 00:44:29;;;;;;;16.07;5.13;;;;;;;14.27;56.80;100866.22;688323;28;1105;-78
2023/01/05 00:44:50;;;;;;;12.90;4.97;;;;;;;14.32;56.92;100868.91;682856;28;1256;-77
2023/01/05 00:45:13;;;;;;;12.50;5.15;;;;;;;14.34;57.08;100862.81;685572;28;1269;-77
2023/01/05 00:45:34;;;;;;;13.18;5.55;;;;;;;14.31;56.94;100869.78;685591;28;975;-77
2023/01/05 00:45:54;;;;;;;14.40;5.28;;;;;;;14.25;56.79;100868.81;687896;28;1311;-77
2023/01/05 00:46:15;;;;;;;16.67;5.30;;;;;;;14.20;57.15;100852.09;687449;28;1286;-78
2023/01/05 00:46:35;;;;;;;18.38;5.00;;;;;;;14.20;57.30;100859.97;685777;28;795;-77
2023/01/05 00:46:56;;;;;;;16.98;5.10;;;;;;;14.32;57.25;100869.78;685352;28;1064;-79
2023/01/05 00:47:17;;;;;;;15.10;4.73;;;;;;;14.34;56.91;100872.44;680377;29;1198;-78
2023/01/05 00:47:38;;;;;;;13.52;4.63;;;;;;;14.40;57.04;100872.50;685669;28;874;-79
2023/01/05 00:47:58;;;;;;;17.83;5.57;;;;;;;14.47;56.72;100883.97;688246;28;1096;-79
2023/01/05 00:48:19;;;;;;;17.08;5.80;;;;;;;14.47;56.78;100877.00;685547;28;1237;-78
2023/01/05 00:48:40;;;;;;;18.05;5.93;;;;;;;14.45;56.66;100881.31;685645;28;1039;-79
2023/01/05 00:49:01;;;;;;;17.77;5.40;;;;;;;14.41;56.65;100866.41;685546;28;1398;-78
2023/01/05 00:49:21;;;;;;;21.17;5.70;;;;;;;14.39;56.64;100881.25;685401;28;1183;-78
2023/01/05 00:49:42;;;;;;;19.25;5.63;;;;;;;14.40;56.71;100888.28;685558;28;1070;-79
2023/01/05 00:50:04;;;;;;;17.02;5.10;;;;;;;14.49;56.60;100869.13;685551;28;1354;-78
2023/01/05 00:50:25;;;;;;;16.95;5.13;;;;;;;14.52;56.30;100867.41;685627;28;1022;-78
2023/01/05 00:50:48;;;;;;;17.20;5.10;;;;;;;14.44;56.65;100879.56;682892;28;986;-78
2023/01/05 00:51:09;;;;;;;16.80;5.30;;;;;;;14.42;56.57;100870.78;685717;28;1146;-78
2023/01/05 00:51:30;;;;;;;16.40;4.90;;;;;;;14.43;56.63;100890.06;682924;29;1089;-79
2023/01/05 00:51:50;;;;;;;17.88;5.10;;;;;;;14.45;56.87;100880.44;685644;28;1095;-78
2023/01/05 00:52:11;;;;;;;16.07;4.80;;;;;;;14.52;56.44;100887.56;680346;28;1003;-77
2023/01/05 00:52:31;;;;;;;14.57;4.60;;;;;;;14.51;56.60;100889.28;680333;29;1273;-77
2023/01/05 00:52:52;;;;;;;16.83;4.83;;;;;;;14.45;56.66;100876.06;682861;28;1014;-78
2023/01/05 00:53:12;;;;;;;20.55;5.05;;;;;;;14.41;56.68;100879.53;688184;28;1271;-78
2023/01/05 00:53:33;;;;;;;20.53;5.00;;;;;;;14.39;56.48;100891.75;685646;28;1288;-78
2023/01/05 00:53:53;;;;;;;18.63;5.20;;;;;;;14.44;56.70;100894.44;685530;28;1189;-78
2023/01/05 00:54:14;;;;;;;14.13;5.10;;;;;;;14.36;56.70;100887.34;680306;29;1343;-78
2023/01/05 00:54:35;;;;;;;15.48;5.20;;;;;;;14.42;56.72;100889.16;680300;29;1304;-78
2023/01/05 00:54:59;;;;;;;15.75;5.22;;;;;;;14.43;56.63;100867.28;688334;28;1208;-77
2023/01/05 00:55:19;;;;;;;18.17;5.80;;;;;;;14.33;56.44;100891.66;688158;28;1291;-77
2023/01/05 00:55:40;;;;;;;20.20;6.60;;;;;;;14.41;56.79;100884.78;685510;28;1167;-78
2023/01/05 00:56:01;;;;;;;18.85;6.00;;;;;;;14.45;56.99;100883.94;685570;28;969;-78
2023/01/05 00:56:21;;;;;;;17.88;5.32;;;;;;;14.50;56.70;100882.28;682836;29;1133;-77
2023/01/05 00:56:42;;;;;;;16.93;4.77;;;;;;;14.48;56.49;100870.88;685406;28;1022;-77
2023/01/05 00:57:04;;;;;;;17.75;5.05;;;;;;;14.45;56.53;100880.44;685431;28;1155;-78
2023/01/05 00:57:25;;;;;;;19.25;5.10;;;;;;;14.41;56.35;100890.03;682868;28;1174;-78
2023/01/05 00:57:48;;;;;;;18.80;4.90;;;;;;;14.53;56.47;100907.69;682827;28;1221;-78
2023/01/05 00:58:08;;;;;;;17.52;5.13;;;;;;;14.44;56.46;100882.19;680223;29;1120;-78
2023/01/05 00:58:29;;;;;;;18.80;5.53;;;;;;;14.38;56.73;100901.38;682878;28;1179;-79
2023/01/05 00:58:53;;;;;;;17.70;5.40;;;;;;;14.33;56.76;100881.16;682866;28;1165;-78
2023/01/05 00:59:15;;;;;;;17.77;5.30;;;;;;;14.42;56.70;100893.50;682855;29;1471;-78
2023/01/05 00:59:35;;;;;;;14.30;4.90;;;;;;;14.31;56.61;100891.63;685649;28;872;-78
2023/01/05 00:59:56;;;;;;;17.90;5.40;;;;;;;14.38;56.68;100885.63;688211;28;1445;-78
2023/01/05 01:00:18;;;;;;;19.23;5.57;;;;;;;14.29;56.66;100889.84;685400;28;1534;-78
2023/01/05 01:00:39;;;;;;;21.08;5.72;;;;;;;14.41;56.79;100904.88;688194;28;1212;-77
2023/01/05 01:01:01;;;;;;;16.70;5.27;;;;;;;14.33;56.63;100886.41;688256;28;1040;-78
2023/01/05 01:01:21;;;;;;;16.95;4.85;;;;;;;14.31;56.93;100893.41;688255;28;1146;-78
2023/01/05 01:01:49;;;;;;;16.10;4.40;;;;;;;14.20;56.64;100922.09;682875;28;1173;-78
2023/01/05 01:02:10;;;;;;;17.80;4.72;;;;;;;14.22;56.99;100896.75;685626;28;1274;-77
2023/01/05 01:02:37;;;;;;;18.42;5.60;;;;;;;14.39;56.73;100904.88;685536;28;1183;-77
2023/01/05 01:02:58;;;;;;;17.17;5.22;;;;;;;14.41;56.47;100892.66;685457;28;1219;-78
2023/01/05 01:03:19;;;;;;;16.00;5.28;;;;;;;14.42;56.45;100901.41;682690;28;1995;-77
2023/01/05 01:03:39;;;;;;;14.80;4.90;;;;;;;14.38;56.61;100895.25;682933;28;943;-78
2023/01/05 01:04:00;;;;;;;14.00;4.80;;;;;;;14.38;56.51;100888.22;683061;28;777;-78
2023/01/05 01:04:21;;;;;;;21.00;5.57;;;;;;;14.41;56.33;100895.28;682779;28;1124;-78
2023/01/05 01:04:41;;;;;;;22.65;5.85;;;;;;;14.46;56.52;100904.13;682868;28;900;-79
2023/01/05 01:05:04;;;;;;;23.10;5.83;;;;;;;14.37;56.45;100888.19;682961;29;1068;-79
2023/01/05 01:05:24;;;;;;;18.10;5.05;;;;;;;14.32;56.61;100893.38;685405;28;944;-78
2023/01/05 01:05:45;;;;;;;17.90;5.00;;;;;;;14.28;56.57;100898.59;688173;28;1078;-77
2023/01/05 01:06:06;;;;;;;20.40;5.10;;;;;;;14.33;56.92;100895.16;682920;28;1058;-78
2023/01/05 01:06:27;;;;;;;18.38;4.85;;;;;;;14.39;56.64;100891.75;682747;29;1182;-77
2023/01/05 01:06:48;;;;;;;17.13;4.60;;;;;;;14.38;56.69;100897.88;682761;29;1093;-78
2023/01/05 01:07:08;;;;;;;14.10;4.60;;;;;;;14.36;56.33;100891.69;683030;28;1157;-78
2023/01/05 01:07:29;;;;;;;13.68;4.80;;;;;;;14.38;56.66;100890.88;680120;29;971;-78
2023/01/05 01:07:49;;;;;;;13.77;4.80;;;;;;;14.39;56.47;100894.38;682760;28;1235;-78
2023/01/05 01:08:10;;;;;;;15.23;4.60;;;;;;;14.49;56.30;100914.66;685675;28;982;-78
2023/01/05 01:08:31;;;;;;;16.77;4.60;;;;;;;14.43;56.45;100879.56;688179;28;1221;-78
2023/01/05 01:08:52;;;;;;;17.90;4.60;;;;;;;14.47;56.45;100895.38;682813;29;1458;-78
2023/01/05 01:09:13;;;;;;;19.52;5.13;;;;;;;14.50;56.35;100905.03;682879;29;1161;-77
2023/01/05 01:09:34;;;;;;;16.75;4.97;;;;;;;14.52;56.34;100903.31;685560;28;1284;-77
2023/01/05 01:09:54;;;;;;;16.75;5.43;;;;;;;14.59;55.90;100904.25;685391;28;1159;-78
2023/01/05 01:10:15;;;;;;;17.13;5.45;;;;;;;14.53;56.09;100953.19;682838;29;1037;-78
2023/01/05 01:10:39;;;;;;;18.77;5.13;;;;;;;14.63;56.01;100924.47;688287;28;1483;-77
2023/01/05 01:11:04;;;;;;;17.52;5.00;;;;;;;14.55;56.27;100895.47;685559;28;942;-76
2023/01/05 01:11:25;;;;;;;16.20;4.88;;;;;;;14.52;56.02;100893.66;685453;28;1078;-77
2023/01/05 01:11:46;;;;;;;16.65;5.10;;;;;;;14.50;55.91;100892.78;680226;28;1293;-77
2023/01/05 01:12:06;;;;;;;17.42;5.25;;;;;;;14.36;55.97;100886.44;688203;28;1290;-78
2023/01/05 01:12:28;;;;;;;13.95;5.00;;;;;;;14.37;56.38;100899.59;682749;28;1146;-77
2023/01/05 01:12:52;;;;;;;13.40;4.60;;;;;;;14.29;56.49;100890.72;685533;28;953;-77
2023/01/05 01:13:12;;;;;;;15.80;5.20;;;;;;;14.29;56.39;100889.84;685362;28;1282;-76
2023/01/05 01:13:33;;;;;;;17.30;5.13;;;;;;;14.38;56.52;100895.25;690925;28;1155;-77
2023/01/05 01:13:54;;;;;;;18.90;5.25;;;;;;;14.39;56.60;100894.38;688268;28;1072;-77
2023/01/05 01:14:15;;;;;;;18.50;5.00;;;;;;;14.35;56.33;100895.19;685566;28;1004;-78
2023/01/05 01:14:37;;;;;;;18.48;5.20;;;;;;;14.34;56.49;100906.56;688265;28;1200;-78
2023/01/05 01:14:58;;;;;;;22.08;5.53;;;;;;;14.35;56.50;100882.06;688105;28;1283;-77
2023/01/05 01:15:19;;;;;;;23.02;5.60;;;;;;;14.23;56.48;100886.28;685430;28;1431;-77
2023/01/05 01:15:40;;;;;;;26.48;5.90;;;;;;;14.23;56.68;100885.38;685707;28;1096;-77
2023/01/05 01:16:12;;;;;;;23.00;5.50;;;;;;;14.30;56.54;100912.59;685577;28;816;-77
2023/01/05 01:16:34;;;;;;;23.77;5.32;;;;;;;14.29;56.77;100888.09;690832;28;1600;-77
2023/01/05 01:16:54;;;;;;;21.45;5.18;;;;;;;14.25;56.56;100900.31;682493;28;1158;-76
2023/01/05 01:17:16;;;;;;;19.37;5.07;;;;;;;14.32;56.53;100906.53;682852;29;1077;-77
2023/01/05 01:17:37;;;;;;;16.67;4.70;;;;;;;14.28;56.33;100911.69;680242;29;1988;-77
2023/01/05 01:17:58;;;;;;;16.25;4.93;;;;;;;14.34;56.59;100909.19;682841;28;1246;-77
2023/01/05 01:18:20;;;;;;;20.58;5.85;;;;;;;14.26;56.49;100901.19;682814;28;1090;-77
2023/01/05 01:18:41;;;;;;;19.77;6.07;;;;;;;14.22;56.68;100908.16;682924;28;1167;-78
2023/01/05 01:19:02;;;;;;;16.98;5.68;;;;;;;14.24;56.57;100909.03;683718;28;832;-77
2023/01/05 01:19:25;;;;;;;13.23;4.97;;;;;;;14.23;56.45;100903.75;683547;28;1371;-78
2023/01/05 01:19:45;;;;;;;15.23;5.00;;;;;;;14.18;56.80;100889.69;683697;28;1232;-77
2023/01/05 01:20:06;;;;;;;14.23;4.73;;;;;;;14.29;56.59;100900.34;683020;29;1158;-77
2023/01/05 01:20:27;;;;;;;15.88;4.90;;;;;;;14.28;56.60;100893.31;685460;28;1279;-77
2023/01/05 01:20:48;;;;;;;14.20;4.40;;;;;;;14.28;56.91;100919.59;682786;28;1298;-78
2023/01/05 01:21:09;;;;;;;16.13;4.55;;;;;;;14.30;56.65;100907.34;682842;29;1168;-78
2023/01/05 01:21:29;;;;;;;14.73;4.40;;;;;;;14.21;56.75;100901.09;680223;29;1187;-77
2023/01/05 01:21:50;;;;;;;15.23;4.85;;;;;;;14.21;56.52;100903.72;682742;29;1092;-78
2023/01/05 01:22:11;;;;;;;13.20;4.85;;;;;;;14.24;56.89;100916.91;682743;29;1258;-77
2023/01/05 01:22:32;;;;;;;12.50;4.60;;;;;;;14.20;56.65;100906.34;682867;29;1221;-77
2023/01/05 01:22:55;;;;;;;13.68;4.85;;;;;;;14.25;56.60;100909.91;683016;29;1022;-77
2023/01/05 01:23:16;;;;;;;13.57;5.18;;;;;;;14.20;56.58;100907.22;680048;29;1919;-77
2023/01/05 01:23:36;;;;;;;17.17;5.70;;;;;;;14.19;56.75;100899.34;682936;29;1121;-78
2023/01/05 01:23:57;;;;;;;20.88;5.43;;;;;;;14.23;56.59;100904.66;685473;28;1226;-78
2023/01/05 01:24:24;;;;;;;20.17;4.88;;;;;;;14.10;56.77;100895.69;685509;28;1197;-78
2023/01/05 01:24:45;;;;;;;15.63;4.60;;;;;;;14.17;56.94;100907.19;685436;28;1227;-77
2023/01/05 01:25:06;;;;;;;15.65;5.20;;;;;;;14.09;57.01;100900.91;685515;28;1214;-77
2023/01/05 01:25:27;;;;;;;18.25;5.35;;;;;;;14.08;57.16;100901.75;685465;28;956;-77
2023/01/05 01:25:48;;;;;;;15.43;4.88;;;;;;;14.09;57.20;100899.16;680243;28;1086;-78
2023/01/05 01:26:11;;;;;;;14.07;4.60;;;;;;;14.08;57.03;100922.75;680195;29;1286;-77
2023/01/05 01:26:32;;;;;;;14.43;4.60;;;;;;;14.16;57.14;100915.91;682873;29;1143;-77
2023/01/05 01:26:53;;;;;;;17.08;4.90;;;;;;;14.20;56.68;100908.97;687850;28;1221;-78
2023/01/05 01:27:14;;;;;;;16.40;4.95;;;;;;;14.12;57.00;100903.59;688194;28;1297;-78
2023/01/05 01:27:35;;;;;;;18.52;5.43;;;;;;;14.07;57.07;100916.63;682820;28;800;-77
2023/01/05 01:27:55;;;;;;;20.43;5.50;;;;;;;14.03;57.38;100908.66;682479;28;1042;-77
2023/01/05 01:28:28;;;;;;;21.48;5.22;;;;;;;14.11;57.13;100910.59;682607;29;961;-77
2023/01/05 01:28:49;;;;;;;17.75;4.70;;;;;;;14.09;56.85;100911.41;685538;28;1068;-77
2023/01/05 01:29:09;;;;;;;17.80;5.00;;;;;;;14.15;56.79;100898.41;685612;28;1191;-77
2023/01/05 01:29:30;;;;;;;15.98;5.00;;;;;;;14.29;56.66;100910.84;685513;28;1179;-77
2023/01/05 01:29:51;;;;;;;17.73;5.47;;;;;;;14.23;56.68;100917.78;685455;28;1264;-77
2023/01/05 01:30:12;;;;;;;17.48;5.10;;;;;;;14.16;56.80;100905.44;685550;28;1295;-78
2023/01/05 01:30:33;;;;;;;17.08;4.93;;;;;;;14.08;56.90;100901.75;682879;29;1144;-77
2023/01/05 01:30:55;;;;;;;15.07;4.45;;;;;;;14.14;56.73;100907.16;682747;28;1043;-77
2023/01/05 01:31:16;;;;;;;13.35;4.15;;;;;;;14.18;56.78;100908.06;682863;29;1219;-77
2023/01/05 01:31:37;;;;;;;14.98;4.55;;;;;;;14.18;56.45;100895.81;682937;29;825;-78
2023/01/05 01:31:58;;;;;;;15.75;4.97;;;;;;;14.13;56.56;100909.75;682791;29;1225;-77
2023/01/05 01:32:19;;;;;;;18.25;5.20;;;;;;;14.08;56.54;100899.16;682706;29;1418;-77
2023/01/05 01:32:39;;;;;;;17.00;4.90;;;;;;;14.09;56.82;100908.78;680200;28;1189;-77
2023/01/05 01:33:00;;;;;;;16.70;5.00;;;;;;;14.00;57.09;100903.38;680162;29;1233;-77
2023/01/05 01:33:21;;;;;;;18.48;5.55;;;;;;;13.93;57.21;100907.63;680093;29;1325;-77
2023/01/05 01:33:42;;;;;;;17.75;5.95;;;;;;;13.93;57.26;100911.16;680302;29;1045;-77
2023/01/05 01:34:04;;;;;;;17.52;5.70;;;;;;;13.88;57.46;100889.19;682791;28;1385;-77
2023/01/05 01:34:25;;;;;;;20.00;5.70;;;;;;;13.81;57.33;100890.84;685469;28;1212;-77
2023/01/05 01:34:46;;;;;;;21.13;5.32;;;;;;;13.81;57.63;100896.09;688158;28;1141;-77
2023/01/05 01:35:07;;;;;;;21.00;5.10;;;;;;;13.80;57.74;100893.44;680263;28;1144;-77
2023/01/05 01:35:28;;;;;;;19.10;4.93;;;;;;;13.81;57.52;100908.31;685433;28;1218;-78
2023/01/05 01:35:49;;;;;;;21.10;5.18;;;;;;;13.85;57.45;100908.38;682780;28;1197;-77
2023/01/05 01:36:10;;;;;;;25.17;5.72;;;;;;;13.83;57.65;100906.63;682996;28;994;-78
2023/01/05 01:36:31;;;;;;;25.67;6.13;;;;;;;13.82;57.41;100904.81;682598;28;1151;-79
2023/01/05 01:36:54;;;;;;;22.65;6.28;;;;;;;13.76;57.45;100905.63;685165;28;1136;-77
2023/01/05 01:37:16;;;;;;;20.30;6.00;;;;;;;13.77;57.36;100904.75;682713;29;1070;-77
2023/01/05 01:37:42;;;;;;;20.10;5.65;;;;;;;13.69;57.51;100922.09;682740;28;1245;-77
2023/01/05 01:38:03;;;;;;;22.20;5.80;;;;;;;13.79;57.96;100920.53;685457;28;1029;-77
2023/01/05 01:38:24;;;;;;;22.10;5.82;;;;;;;13.72;57.88;100895.94;682658;28;1209;-76
2023/01/05 01:38:45;;;;;;;19.38;5.25;;;;;;;13.70;57.44;100914.28;682751;28;1272;-76
2023/01/05 01:39:06;;;;;;;15.65;4.95;;;;;;;13.71;57.86;100908.16;680105;29;1554;-77
2023/01/05 01:39:29;;;;;;;15.82;4.78;;;;;;;13.77;57.47;100901.28;680049;29;1392;-78
2023/01/05 01:39:56;;;;;;;16.08;5.30;;;;;;;13.75;57.40;100905.63;679837;29;2051;-77
2023/01/05 01:40:17;;;;;;;20.90;5.47;;;;;;;13.74;57.55;100903.81;685286;28;1221;-76
2023/01/05 01:40:43;;;;;;;24.63;5.90;;;;;;;13.71;57.82;100918.66;685446;28;1255;-77
2023/01/05 01:41:04;;;;;;;24.13;6.07;;;;;;;13.66;57.89;100919.44;685491;28;2085;-78
2023/01/05 01:41:25;;;;;;;21.23;5.70;;;;;;;13.68;57.69;100909.84;685446;28;998;-78
2023/01/05 01:41:46;;;;;;;15.57;4.97;;;;;;;13.70;57.95;100911.66;685398;28;1352;-78
2023/01/05 01:42:15;;;;;;;17.52;5.07;;;;;;;13.71;57.52;100907.31;685486;28;1367;-78
2023/01/05 01:42:37;;;;;;;19.23;5.47;;;;;;;13.67;57.63;100927.34;688198;28;867;-79
2023/01/05 01:42:58;;;;;;;21.77;5.70;;;;;;;13.70;57.69;100911.66;685484;28;1041;-77
2023/01/05 01:43:38;;;;;;;23.85;5.95;;;;;;;13.68;57.81;100923.84;690579;28;1906;-78
2023/01/05 01:43:59;;;;;;;19.30;5.82;;;;;;;13.66;57.76;100908.94;685399;28;1101;-78
2023/01/05 01:44:48;;;;;;;16.77;5.57;;;;;;;13.70;57.92;100926.47;685298;28;1167;-77
2023/01/05 01:45:22;;;;;;;24.20;6.20;;;;;;;13.71;57.52;100918.66;686723;28;954;-77
2023/01/05 01:45:43;;;;;;;21.92;5.80;;;;;;;13.71;57.96;100923.91;688043;28;1155;-77
2023/01/05 01:46:04;;;;;;;20.48;5.78;;;;;;;13.70;57.91;100926.47;685446;28;1938;-77
2023/01/05 01:46:26;;;;;;;18.80;5.45;;;;;;;13.73;57.58;100926.56;688117;28;1036;-78
2023/01/05 01:46:47;;;;;;;18.35;5.47;;;;;;;13.68;58.11;100931.72;682463;28;1350;-77
2023/01/05 01:47:16;;;;;;;17.50;5.20;;;;;;;13.69;57.36;100915.13;685139;28;1162;-77
2023/01/05 01:47:44;;;;;;;15.02;5.35;;;;;;;13.61;57.95;100932.47;688221;28;815;-77
2023/01/05 01:48:08;;;;;;;19.23;5.57;;;;;;;13.71;57.97;100957.13;685499;28;1291;-77
2023/01/05 01:48:29;;;;;;;20.10;5.45;;;;;;;13.63;58.10;100929.88;682690;28;947;-77
2023/01/05 01:49:00;;;;;;;18.13;5.13;;;;;;;13.61;58.04;100936.81;682664;29;1037;-78
2023/01/05 01:49:21;;;;;;;20.25;5.05;;;;;;;13.59;58.19;100925.44;682656;28;1421;-77
2023/01/05 01:49:42;;;;;;;19.60;5.40;;;;;;;13.58;58.41;100935.00;682787;29;1159;-77
2023/01/05 01:50:11;;;;;;;16.43;5.17;;;;;;;13.69;58.14;100946.59;682816;29;1070;-77
2023/01/05 01:50:37;;;;;;;18.20;5.22;;;;;;;13.64;58.03;100937.75;688277;28;1110;-78
2023/01/05 01:51:02;;;;;;;19.63;5.07;;;;;;;13.53;58.07;100923.59;682637;29;1244;-77
2023/01/05 01:51:29;;;;;;;17.23;4.90;;;;;;;13.53;58.27;100926.19;682696;28;1001;-78
2023/01/05 01:51:49;;;;;;;16.10;4.95;;;;;;;13.53;58.29;100928.81;682824;29;1048;-77
2023/01/05 01:52:11;;;;;;;16.13;4.95;;;;;;;13.63;57.91;100915.00;685625;28;1149;-77
2023/01/05 01:52:33;;;;;;;19.88;5.13;;;;;;;13.62;58.44;100921.13;688223;28;1179;-78
2023/01/05 01:52:57;;;;;;;23.17;5.97;;;;;;;13.62;58.23;100922.84;685419;28;1594;-78
2023/01/05 01:53:33;;;;;;;21.30;6.03;;;;;;;13.64;58.35;100937.75;682756;28;1042;-77
2023/01/05 01:53:58;;;;;;;22.23;6.13;;;;;;;13.69;57.90;100930.88;682693;29;1383;-77
2023/01/05 01:54:19;;;;;;;24.70;6.30;;;;;;;13.79;57.93;100941.50;682771;28;1259;-77
2023/01/05 01:54:40;;;;;;;23.40;5.90;;;;;;;13.78;57.75;100942.38;685442;28;1491;-78
2023/01/05 01:55:04;;;;;;;17.80;5.35;;;;;;;13.68;58.19;100939.59;685566;28;808;-78